sensor_id;sensor_type;location;lat;lon;timestamp;P1;durP1;ratioP1;P2;durP2;ratioP2
57225;SDS011;43082;43.568;22.256;2023-02-28T00:02:01;22.05;;;16.10;;
57225;SDS011;43082;43.568;22.256;2023-02-28T00:04:27;20.40;;;16.35;;
57225;SDS011;43082;43.568;22.256;2023-02-28T00:06:52;20.48;;;15.75;;
57225;SDS011;43082;43.568;22.256;2023-02-28T00:09:18;23.65;;;15.85;;
57225;SDS011;43082;43.568;22.256;2023-02-28T00:11:43;19.40;;;15.05;;
57225;SDS011;43082;43.568;22.256;2023-02-28T00:14:08;21.10;;;15.57;;
57225;SDS011;43082;43.568;22.256;2023-02-28T00:16:34;20.88;;;15.43;;
57225;SDS011;43082;43.568;22.256;2023-02-28T00:18:59;22.90;;;16.27;;
57225;SDS011;43082;43.568;22.256;2023-02-28T00:21:25;22.55;;;16.33;;
57225;SDS011;43082;43.568;22.256;2023-02-28T00:23:50;21.08;;;16.45;;
57225;SDS011;43082;43.568;22.256;2023-02-28T00:26:15;20.17;;;15.50;;
57225;SDS011;43082;43.568;22.256;2023-02-28T00:28:41;20.70;;;15.68;;
57225;SDS011;43082;43.568;22.256;2023-02-28T00:31:06;21.98;;;15.70;;
57225;SDS011;43082;43.568;22.256;2023-02-28T00:33:32;20.73;;;15.20;;
57225;SDS011;43082;43.568;22.256;2023-02-28T00:36:04;21.35;;;16.40;;
57225;SDS011;43082;43.568;22.256;2023-02-28T00:38:32;19.45;;;14.77;;
57225;SDS011;43082;43.568;22.256;2023-02-28T00:40:57;19.77;;;15.20;;
57225;SDS011;43082;43.568;22.256;2023-02-28T00:43:29;19.35;;;15.10;;
57225;SDS011;43082;43.568;22.256;2023-02-28T00:45:54;21.77;;;16.30;;
57225;SDS011;43082;43.568;22.256;2023-02-28T00:48:20;22.38;;;17.15;;
57225;SDS011;43082;43.568;22.256;2023-02-28T00:50:48;21.67;;;16.35;;
57225;SDS011;43082;43.568;22.256;2023-02-28T00:53:14;21.55;;;16.33;;
57225;SDS011;43082;43.568;22.256;2023-02-28T00:55:39;23.08;;;17.30;;
57225;SDS011;43082;43.568;22.256;2023-02-28T00:58:05;22.50;;;17.42;;
57225;SDS011;43082;43.568;22.256;2023-02-28T01:00:30;24.98;;;15.60;;
57225;SDS011;43082;43.568;22.256;2023-02-28T01:02:55;19.92;;;14.35;;
57225;SDS011;43082;43.568;22.256;2023-02-28T01:05:21;20.60;;;15.15;;
57225;SDS011;43082;43.568;22.256;2023-02-28T01:07:46;22.67;;;15.95;;
57225;SDS011;43082;43.568;22.256;2023-02-28T01:10:12;21.30;;;15.50;;
57225;SDS011;43082;43.568;22.256;2023-02-28T01:12:37;22.10;;;16.55;;
57225;SDS011;43082;43.568;22.256;2023-02-28T01:15:03;21.67;;;17.10;;
57225;SDS011;43082;43.568;22.256;2023-02-28T01:17:29;21.63;;;15.95;;
57225;SDS011;43082;43.568;22.256;2023-02-28T01:19:55;22.65;;;16.55;;
57225;SDS011;43082;43.568;22.256;2023-02-28T01:22:21;23.42;;;17.83;;
57225;SDS011;43082;43.568;22.256;2023-02-28T01:24:47;23.45;;;18.45;;
57225;SDS011;43082;43.568;22.256;2023-02-28T01:27:12;23.17;;;17.80;;
57225;SDS011;43082;43.568;22.256;2023-02-28T01:29:38;24.25;;;18.48;;
57225;SDS011;43082;43.568;22.256;2023-02-28T01:32:03;24.35;;;19.08;;
57225;SDS011;43082;43.568;22.256;2023-02-28T01:34:29;23.77;;;17.83;;
57225;SDS011;43082;43.568;22.256;2023-02-28T01:36:54;34.88;;;23.77;;
57225;SDS011;43082;43.568;22.256;2023-02-28T01:39:19;22.95;;;17.42;;
57225;SDS011;43082;43.568;22.256;2023-02-28T01:41:45;23.13;;;17.88;;
57225;SDS011;43082;43.568;22.256;2023-02-28T01:47:14;24.30;;;18.40;;
57225;SDS011;43082;43.568;22.256;2023-02-28T01:49:40;27.98;;;20.13;;
57225;SDS011;43082;43.568;22.256;2023-02-28T01:52:05;28.13;;;20.88;;
57225;SDS011;43082;43.568;22.256;2023-02-28T01:54:32;30.05;;;21.88;;
57225;SDS011;43082;43.568;22.256;2023-02-28T01:57:04;29.27;;;20.45;;
57225;SDS011;43082;43.568;22.256;2023-02-28T01:59:35;29.15;;;20.98;;
57225;SDS011;43082;43.568;22.256;2023-02-28T02:02:05;29.73;;;21.63;;
57225;SDS011;43082;43.568;22.256;2023-02-28T02:04:36;27.17;;;19.73;;
57225;SDS011;43082;43.568;22.256;2023-02-28T02:07:04;27.92;;;20.95;;
57225;SDS011;43082;43.568;22.256;2023-02-28T02:09:29;25.33;;;19.13;;
57225;SDS011;43082;43.568;22.256;2023-02-28T02:11:55;24.58;;;17.85;;
57225;SDS011;43082;43.568;22.256;2023-02-28T02:22:11;25.45;;;19.73;;
57225;SDS011;43082;43.568;22.256;2023-02-28T02:24:47;24.15;;;18.67;;
57225;SDS011;43082;43.568;22.256;2023-02-28T02:38:36;26.40;;;20.67;;
57225;SDS011;43082;43.568;22.256;2023-02-28T02:46:45;22.75;;;18.05;;
57225;SDS011;43082;43.568;22.256;2023-02-28T02:49:18;24.83;;;18.73;;
57225;SDS011;43082;43.568;22.256;2023-02-28T02:51:47;23.63;;;18.33;;
57225;SDS011;43082;43.568;22.256;2023-02-28T02:56:46;25.15;;;19.58;;
57225;SDS011;43082;43.568;22.256;2023-02-28T02:59:13;23.85;;;18.80;;
57225;SDS011;43082;43.568;22.256;2023-02-28T03:01:46;22.40;;;17.58;;
57225;SDS011;43082;43.568;22.256;2023-02-28T03:04:16;22.88;;;17.58;;
57225;SDS011;43082;43.568;22.256;2023-02-28T03:06:44;25.45;;;18.80;;
57225;SDS011;43082;43.568;22.256;2023-02-28T03:09:09;22.45;;;17.35;;
57225;SDS011;43082;43.568;22.256;2023-02-28T03:11:35;23.77;;;17.38;;
57225;SDS011;43082;43.568;22.256;2023-02-28T03:14:09;22.38;;;17.08;;
57225;SDS011;43082;43.568;22.256;2023-02-28T03:19:23;23.73;;;17.98;;
57225;SDS011;43082;43.568;22.256;2023-02-28T03:22:03;23.80;;;17.85;;
57225;SDS011;43082;43.568;22.256;2023-02-28T03:27:27;25.55;;;19.33;;
57225;SDS011;43082;43.568;22.256;2023-02-28T03:30:05;22.40;;;16.90;;
57225;SDS011;43082;43.568;22.256;2023-02-28T03:32:37;23.42;;;17.10;;
57225;SDS011;43082;43.568;22.256;2023-02-28T03:35:07;24.90;;;18.00;;
57225;SDS011;43082;43.568;22.256;2023-02-28T03:37:37;20.65;;;16.08;;
57225;SDS011;43082;43.568;22.256;2023-02-28T03:40:14;22.75;;;17.25;;
57225;SDS011;43082;43.568;22.256;2023-02-28T03:42:43;23.73;;;17.83;;
57225;SDS011;43082;43.568;22.256;2023-02-28T03:45:11;24.25;;;17.90;;
57225;SDS011;43082;43.568;22.256;2023-02-28T03:47:45;28.00;;;19.08;;
57225;SDS011;43082;43.568;22.256;2023-02-28T03:52:41;25.75;;;18.85;;
57225;SDS011;43082;43.568;22.256;2023-02-28T03:55:10;23.98;;;17.40;;
57225;SDS011;43082;43.568;22.256;2023-02-28T03:57:47;24.95;;;18.23;;
57225;SDS011;43082;43.568;22.256;2023-02-28T04:00:17;23.60;;;17.10;;
57225;SDS011;43082;43.568;22.256;2023-02-28T04:02:44;23.15;;;17.30;;
57225;SDS011;43082;43.568;22.256;2023-02-28T04:05:10;23.05;;;18.02;;
57225;SDS011;43082;43.568;22.256;2023-02-28T04:07:35;23.83;;;17.35;;
57225;SDS011;43082;43.568;22.256;2023-02-28T04:10:01;24.08;;;17.33;;
57225;SDS011;43082;43.568;22.256;2023-02-28T04:12:26;23.42;;;17.15;;
57225;SDS011;43082;43.568;22.256;2023-02-28T04:14:52;23.33;;;16.27;;
57225;SDS011;43082;43.568;22.256;2023-02-28T04:17:17;22.52;;;16.63;;
57225;SDS011;43082;43.568;22.256;2023-02-28T04:19:43;22.77;;;16.58;;
57225;SDS011;43082;43.568;22.256;2023-02-28T04:22:09;23.05;;;17.48;;
57225;SDS011;43082;43.568;22.256;2023-02-28T04:24:34;23.95;;;17.13;;
57225;SDS011;43082;43.568;22.256;2023-02-28T04:27:00;22.33;;;16.13;;
57225;SDS011;43082;43.568;22.256;2023-02-28T04:29:26;23.35;;;17.20;;
57225;SDS011;43082;43.568;22.256;2023-02-28T04:31:53;21.83;;;16.55;;
57225;SDS011;43082;43.568;22.256;2023-02-28T04:34:20;22.65;;;17.10;;
57225;SDS011;43082;43.568;22.256;2023-02-28T04:36:46;27.77;;;21.05;;
57225;SDS011;43082;43.568;22.256;2023-02-28T04:39:14;21.80;;;16.13;;
57225;SDS011;43082;43.568;22.256;2023-02-28T04:41:40;21.55;;;16.45;;
57225;SDS011;43082;43.568;22.256;2023-02-28T04:44:05;22.88;;;17.05;;
57225;SDS011;43082;43.568;22.256;2023-02-28T04:46:30;22.17;;;16.15;;
57225;SDS011;43082;43.568;22.256;2023-02-28T04:48:56;22.85;;;17.08;;
57225;SDS011;43082;43.568;22.256;2023-02-28T04:51:21;21.98;;;15.32;;
57225;SDS011;43082;43.568;22.256;2023-02-28T04:53:47;20.55;;;15.93;;
57225;SDS011;43082;43.568;22.256;2023-02-28T04:56:13;23.40;;;16.80;;
57225;SDS011;43082;43.568;22.256;2023-02-28T04:58:41;24.10;;;17.00;;
57225;SDS011;43082;43.568;22.256;2023-02-28T05:01:14;23.00;;;16.30;;
57225;SDS011;43082;43.568;22.256;2023-02-28T05:03:43;22.67;;;16.63;;
57225;SDS011;43082;43.568;22.256;2023-02-28T05:06:09;23.48;;;16.70;;
57225;SDS011;43082;43.568;22.256;2023-02-28T05:08:35;28.60;;;21.67;;
57225;SDS011;43082;43.568;22.256;2023-02-28T05:11:01;22.80;;;16.60;;
57225;SDS011;43082;43.568;22.256;2023-02-28T05:13:27;22.70;;;16.20;;
57225;SDS011;43082;43.568;22.256;2023-02-28T05:15:53;22.92;;;15.82;;
57225;SDS011;43082;43.568;22.256;2023-02-28T05:18:18;22.90;;;16.20;;
57225;SDS011;43082;43.568;22.256;2023-02-28T05:20:44;25.67;;;19.08;;
57225;SDS011;43082;43.568;22.256;2023-02-28T05:23:13;25.92;;;18.17;;
57225;SDS011;43082;43.568;22.256;2023-02-28T05:25:39;24.65;;;17.55;;
57225;SDS011;43082;43.568;22.256;2023-02-28T05:28:04;25.45;;;18.48;;
57225;SDS011;43082;43.568;22.256;2023-02-28T05:30:30;30.92;;;21.25;;
57225;SDS011;43082;43.568;22.256;2023-02-28T05:32:56;25.08;;;18.20;;
57225;SDS011;43082;43.568;22.256;2023-02-28T05:35:22;26.42;;;19.15;;
57225;SDS011;43082;43.568;22.256;2023-02-28T05:37:48;30.02;;;20.48;;
57225;SDS011;43082;43.568;22.256;2023-02-28T05:40:13;27.08;;;19.88;;
57225;SDS011;43082;43.568;22.256;2023-02-28T05:42:40;26.48;;;17.63;;
57225;SDS011;43082;43.568;22.256;2023-02-28T05:45:06;23.10;;;16.88;;
57225;SDS011;43082;43.568;22.256;2023-02-28T05:47:32;20.15;;;14.90;;
57225;SDS011;43082;43.568;22.256;2023-02-28T05:49:58;23.75;;;17.70;;
57225;SDS011;43082;43.568;22.256;2023-02-28T05:52:23;22.23;;;16.73;;
57225;SDS011;43082;43.568;22.256;2023-02-28T05:54:48;27.60;;;20.63;;
57225;SDS011;43082;43.568;22.256;2023-02-28T05:57:14;26.90;;;18.83;;
57225;SDS011;43082;43.568;22.256;2023-02-28T05:59:39;29.83;;;18.38;;
57225;SDS011;43082;43.568;22.256;2023-02-28T06:02:06;27.05;;;17.08;;
57225;SDS011;43082;43.568;22.256;2023-02-28T06:04:33;23.90;;;15.80;;
57225;SDS011;43082;43.568;22.256;2023-02-28T06:06:59;21.80;;;15.20;;
57225;SDS011;43082;43.568;22.256;2023-02-28T06:09:24;23.92;;;17.00;;
57225;SDS011;43082;43.568;22.256;2023-02-28T06:11:50;24.42;;;17.10;;
57225;SDS011;43082;43.568;22.256;2023-02-28T06:14:18;23.08;;;15.60;;
57225;SDS011;43082;43.568;22.256;2023-02-28T06:16:44;21.98;;;15.20;;
57225;SDS011;43082;43.568;22.256;2023-02-28T06:19:09;22.58;;;16.10;;
57225;SDS011;43082;43.568;22.256;2023-02-28T06:21:35;21.58;;;14.27;;
57225;SDS011;43082;43.568;22.256;2023-02-28T06:24:01;18.38;;;13.20;;
57225;SDS011;43082;43.568;22.256;2023-02-28T06:26:27;24.48;;;16.30;;
57225;SDS011;43082;43.568;22.256;2023-02-28T06:28:52;22.17;;;16.17;;
57225;SDS011;43082;43.568;22.256;2023-02-28T06:31:18;19.33;;;13.73;;
57225;SDS011;43082;43.568;22.256;2023-02-28T06:33:44;23.65;;;14.18;;
57225;SDS011;43082;43.568;22.256;2023-02-28T06:36:11;17.80;;;13.55;;
57225;SDS011;43082;43.568;22.256;2023-02-28T06:38:37;16.48;;;12.20;;
57225;SDS011;43082;43.568;22.256;2023-02-28T06:41:03;16.13;;;12.38;;
57225;SDS011;43082;43.568;22.256;2023-02-28T06:43:31;17.80;;;11.95;;
57225;SDS011;43082;43.568;22.256;2023-02-28T06:45:59;16.75;;;12.07;;
57225;SDS011;43082;43.568;22.256;2023-02-28T06:48:26;17.80;;;13.52;;
57225;SDS011;43082;43.568;22.256;2023-02-28T06:50:52;21.92;;;16.48;;
57225;SDS011;43082;43.568;22.256;2023-02-28T06:53:17;22.27;;;16.92;;
57225;SDS011;43082;43.568;22.256;2023-02-28T06:55:43;23.40;;;16.67;;
57225;SDS011;43082;43.568;22.256;2023-02-28T06:58:08;22.10;;;16.25;;
57225;SDS011;43082;43.568;22.256;2023-02-28T07:00:40;18.30;;;12.93;;
57225;SDS011;43082;43.568;22.256;2023-02-28T07:03:07;20.27;;;14.00;;
57225;SDS011;43082;43.568;22.256;2023-02-28T07:05:34;20.77;;;14.60;;
57225;SDS011;43082;43.568;22.256;2023-02-28T07:08:00;39.88;;;29.00;;
57225;SDS011;43082;43.568;22.256;2023-02-28T07:10:25;19.90;;;14.23;;
57225;SDS011;43082;43.568;22.256;2023-02-28T07:12:51;19.63;;;13.73;;
57225;SDS011;43082;43.568;22.256;2023-02-28T07:15:16;20.10;;;14.98;;
57225;SDS011;43082;43.568;22.256;2023-02-28T07:17:42;21.85;;;16.30;;
57225;SDS011;43082;43.568;22.256;2023-02-28T07:20:07;20.13;;;14.40;;
57225;SDS011;43082;43.568;22.256;2023-02-28T07:22:33;20.92;;;15.13;;
57225;SDS011;43082;43.568;22.256;2023-02-28T07:24:58;20.95;;;16.25;;
57225;SDS011;43082;43.568;22.256;2023-02-28T07:27:24;22.73;;;16.92;;
57225;SDS011;43082;43.568;22.256;2023-02-28T07:29:50;21.33;;;15.23;;
57225;SDS011;43082;43.568;22.256;2023-02-28T07:32:16;17.42;;;12.18;;
57225;SDS011;43082;43.568;22.256;2023-02-28T07:34:41;18.35;;;13.40;;
57225;SDS011;43082;43.568;22.256;2023-02-28T07:37:07;16.17;;;11.85;;
57225;SDS011;43082;43.568;22.256;2023-02-28T07:39:32;14.20;;;10.07;;
57225;SDS011;43082;43.568;22.256;2023-02-28T07:41:58;10.70;;;7.20;;
57225;SDS011;43082;43.568;22.256;2023-02-28T07:44:24;13.65;;;9.32;;
57225;SDS011;43082;43.568;22.256;2023-02-28T07:46:50;12.23;;;8.60;;
57225;SDS011;43082;43.568;22.256;2023-02-28T07:49:16;10.27;;;6.43;;
57225;SDS011;43082;43.568;22.256;2023-02-28T07:51:41;12.57;;;7.57;;
57225;SDS011;43082;43.568;22.256;2023-02-28T07:54:06;11.27;;;6.72;;
57225;SDS011;43082;43.568;22.256;2023-02-28T07:56:32;11.45;;;6.32;;
57225;SDS011;43082;43.568;22.256;2023-02-28T07:58:58;10.32;;;6.60;;
57225;SDS011;43082;43.568;22.256;2023-02-28T08:01:23;11.07;;;7.22;;
57225;SDS011;43082;43.568;22.256;2023-02-28T08:03:48;10.35;;;5.97;;
57225;SDS011;43082;43.568;22.256;2023-02-28T08:06:18;12.00;;;6.95;;
57225;SDS011;43082;43.568;22.256;2023-02-28T08:08:45;13.38;;;8.65;;
57225;SDS011;43082;43.568;22.256;2023-02-28T08:11:11;15.15;;;9.18;;
57225;SDS011;43082;43.568;22.256;2023-02-28T08:13:36;14.98;;;10.05;;
57225;SDS011;43082;43.568;22.256;2023-02-28T08:16:02;21.10;;;13.85;;
57225;SDS011;43082;43.568;22.256;2023-02-28T08:18:27;12.88;;;8.80;;
57225;SDS011;43082;43.568;22.256;2023-02-28T08:20:53;11.50;;;7.80;;
57225;SDS011;43082;43.568;22.256;2023-02-28T08:23:18;11.55;;;6.80;;
57225;SDS011;43082;43.568;22.256;2023-02-28T08:25:44;10.32;;;6.53;;
57225;SDS011;43082;43.568;22.256;2023-02-28T08:28:09;10.10;;;6.40;;
57225;SDS011;43082;43.568;22.256;2023-02-28T08:30:35;9.98;;;6.35;;
57225;SDS011;43082;43.568;22.256;2023-02-28T08:33:00;10.40;;;7.10;;
57225;SDS011;43082;43.568;22.256;2023-02-28T08:35:26;10.77;;;6.55;;
57225;SDS011;43082;43.568;22.256;2023-02-28T08:37:52;10.00;;;5.72;;
57225;SDS011;43082;43.568;22.256;2023-02-28T08:40:17;9.48;;;5.63;;
57225;SDS011;43082;43.568;22.256;2023-02-28T08:42:47;7.97;;;4.55;;
57225;SDS011;43082;43.568;22.256;2023-02-28T08:45:13;10.48;;;5.32;;
57225;SDS011;43082;43.568;22.256;2023-02-28T08:47:39;8.02;;;4.50;;
57225;SDS011;43082;43.568;22.256;2023-02-28T08:50:05;8.43;;;4.93;;
57225;SDS011;43082;43.568;22.256;2023-02-28T08:52:31;8.88;;;5.53;;
57225;SDS011;43082;43.568;22.256;2023-02-28T08:54:56;10.73;;;4.35;;
57225;SDS011;43082;43.568;22.256;2023-02-28T08:57:21;8.60;;;5.18;;
57225;SDS011;43082;43.568;22.256;2023-02-28T08:59:47;7.97;;;4.35;;
57225;SDS011;43082;43.568;22.256;2023-02-28T09:02:13;9.23;;;5.32;;
57225;SDS011;43082;43.568;22.256;2023-02-28T09:04:40;8.52;;;5.18;;
57225;SDS011;43082;43.568;22.256;2023-02-28T09:07:06;7.35;;;4.13;;
57225;SDS011;43082;43.568;22.256;2023-02-28T09:09:31;7.88;;;4.68;;
57225;SDS011;43082;43.568;22.256;2023-02-28T09:11:57;11.05;;;4.10;;
57225;SDS011;43082;43.568;22.256;2023-02-28T09:14:23;10.05;;;5.07;;
57225;SDS011;43082;43.568;22.256;2023-02-28T09:16:48;7.57;;;4.25;;
57225;SDS011;43082;43.568;22.256;2023-02-28T09:19:14;7.30;;;4.00;;
57225;SDS011;43082;43.568;22.256;2023-02-28T09:21:39;6.35;;;3.40;;
57225;SDS011;43082;43.568;22.256;2023-02-28T09:24:05;7.00;;;3.88;;
57225;SDS011;43082;43.568;22.256;2023-02-28T09:26:31;7.00;;;3.83;;
57225;SDS011;43082;43.568;22.256;2023-02-28T09:28:56;9.05;;;3.60;;
57225;SDS011;43082;43.568;22.256;2023-02-28T09:31:24;7.38;;;3.70;;
57225;SDS011;43082;43.568;22.256;2023-02-28T09:33:53;6.50;;;3.60;;
57225;SDS011;43082;43.568;22.256;2023-02-28T09:36:20;8.13;;;3.28;;
57225;SDS011;43082;43.568;22.256;2023-02-28T09:38:46;6.13;;;3.05;;
57225;SDS011;43082;43.568;22.256;2023-02-28T09:41:44;6.20;;;3.03;;
57225;SDS011;43082;43.568;22.256;2023-02-28T09:44:15;6.50;;;2.45;;
57225;SDS011;43082;43.568;22.256;2023-02-28T09:46:47;6.63;;;2.75;;
57225;SDS011;43082;43.568;22.256;2023-02-28T09:49:14;5.68;;;2.70;;
57225;SDS011;43082;43.568;22.256;2023-02-28T09:54:17;12.25;;;4.82;;
57225;SDS011;43082;43.568;22.256;2023-02-28T09:56:55;8.90;;;2.70;;
57225;SDS011;43082;43.568;22.256;2023-02-28T09:59:29;6.97;;;2.70;;
57225;SDS011;43082;43.568;22.256;2023-02-28T10:04:38;5.35;;;2.63;;
57225;SDS011;43082;43.568;22.256;2023-02-28T10:10:22;5.55;;;2.70;;
57225;SDS011;43082;43.568;22.256;2023-02-28T10:12:51;5.57;;;1.80;;
57225;SDS011;43082;43.568;22.256;2023-02-28T10:15:18;5.43;;;2.67;;
57225;SDS011;43082;43.568;22.256;2023-02-28T10:17:47;5.35;;;2.22;;
57225;SDS011;43082;43.568;22.256;2023-02-28T10:20:20;5.85;;;2.40;;
57225;SDS011;43082;43.568;22.256;2023-02-28T10:22:53;6.38;;;2.10;;
57225;SDS011;43082;43.568;22.256;2023-02-28T10:25:23;5.97;;;2.33;;
57225;SDS011;43082;43.568;22.256;2023-02-28T10:27:52;5.45;;;2.40;;
57225;SDS011;43082;43.568;22.256;2023-02-28T10:30:19;5.07;;;2.05;;
57225;SDS011;43082;43.568;22.256;2023-02-28T10:32:47;6.80;;;1.98;;
57225;SDS011;43082;43.568;22.256;2023-02-28T10:35:19;6.68;;;2.50;;
57225;SDS011;43082;43.568;22.256;2023-02-28T10:37:50;4.63;;;1.60;;
57225;SDS011;43082;43.568;22.256;2023-02-28T10:42:54;5.60;;;2.20;;
57225;SDS011;43082;43.568;22.256;2023-02-28T10:45:21;6.63;;;2.10;;
57225;SDS011;43082;43.568;22.256;2023-02-28T10:53:05;6.38;;;1.48;;
57225;SDS011;43082;43.568;22.256;2023-02-28T11:04:16;7.45;;;2.65;;
57225;SDS011;43082;43.568;22.256;2023-02-28T11:06:58;4.40;;;1.83;;
57225;SDS011;43082;43.568;22.256;2023-02-28T11:09:26;5.50;;;2.58;;
57225;SDS011;43082;43.568;22.256;2023-02-28T11:11:56;7.13;;;3.88;;
57225;SDS011;43082;43.568;22.256;2023-02-28T11:14:24;5.65;;;2.40;;
57225;SDS011;43082;43.568;22.256;2023-02-28T11:16:52;4.90;;;1.90;;
57225;SDS011;43082;43.568;22.256;2023-02-28T11:19:20;4.55;;;1.60;;
57225;SDS011;43082;43.568;22.256;2023-02-28T11:21:57;4.85;;;2.22;;
57225;SDS011;43082;43.568;22.256;2023-02-28T11:24:26;9.05;;;5.05;;
57225;SDS011;43082;43.568;22.256;2023-02-28T11:26:52;6.03;;;2.55;;
57225;SDS011;43082;43.568;22.256;2023-02-28T11:31:46;6.45;;;3.30;;
57225;SDS011;43082;43.568;22.256;2023-02-28T11:34:27;6.68;;;2.03;;
57225;SDS011;43082;43.568;22.256;2023-02-28T11:36:54;6.05;;;2.22;;
57225;SDS011;43082;43.568;22.256;2023-02-28T11:39:21;5.40;;;2.00;;
57225;SDS011;43082;43.568;22.256;2023-02-28T11:42:04;4.38;;;1.75;;
57225;SDS011;43082;43.568;22.256;2023-02-28T11:47:25;6.78;;;2.65;;
57225;SDS011;43082;43.568;22.256;2023-02-28T11:52:39;5.03;;;2.30;;
57225;SDS011;43082;43.568;22.256;2023-02-28T11:55:35;6.55;;;1.40;;
57225;SDS011;43082;43.568;22.256;2023-02-28T12:09:04;9.68;;;3.20;;
57225;SDS011;43082;43.568;22.256;2023-02-28T12:14:36;5.05;;;1.30;;
57225;SDS011;43082;43.568;22.256;2023-02-28T12:28:03;6.93;;;2.90;;
57225;SDS011;43082;43.568;22.256;2023-02-28T12:30:33;5.68;;;1.80;;
57225;SDS011;43082;43.568;22.256;2023-02-28T12:33:07;8.48;;;2.88;;
57225;SDS011;43082;43.568;22.256;2023-02-28T12:35:52;5.15;;;1.75;;
57225;SDS011;43082;43.568;22.256;2023-02-28T12:38:25;4.93;;;1.60;;
57225;SDS011;43082;43.568;22.256;2023-02-28T12:43:19;4.32;;;1.50;;
57225;SDS011;43082;43.568;22.256;2023-02-28T12:45:54;3.60;;;1.10;;
57225;SDS011;43082;43.568;22.256;2023-02-28T12:48:26;4.43;;;1.60;;
57225;SDS011;43082;43.568;22.256;2023-02-28T12:50:54;5.43;;;1.90;;
57225;SDS011;43082;43.568;22.256;2023-02-28T12:53:26;6.97;;;3.05;;
57225;SDS011;43082;43.568;22.256;2023-02-28T13:01:23;4.75;;;1.63;;
57225;SDS011;43082;43.568;22.256;2023-02-28T13:09:09;5.47;;;1.70;;
57225;SDS011;43082;43.568;22.256;2023-02-28T13:14:30;7.55;;;2.92;;
57225;SDS011;43082;43.568;22.256;2023-02-28T13:17:02;5.60;;;1.90;;
57225;SDS011;43082;43.568;22.256;2023-02-28T13:19:35;5.75;;;2.15;;
57225;SDS011;43082;43.568;22.256;2023-02-28T13:24:54;7.50;;;1.92;;
57225;SDS011;43082;43.568;22.256;2023-02-28T13:29:49;4.63;;;1.30;;
57225;SDS011;43082;43.568;22.256;2023-02-28T13:32:19;4.22;;;1.50;;
57225;SDS011;43082;43.568;22.256;2023-02-28T13:39:48;7.57;;;2.58;;
57225;SDS011;43082;43.568;22.256;2023-02-28T13:42:24;6.30;;;2.40;;
57225;SDS011;43082;43.568;22.256;2023-02-28T13:50:24;5.70;;;2.10;;
57225;SDS011;43082;43.568;22.256;2023-02-28T14:01:35;12.80;;;5.75;;
57225;SDS011;43082;43.568;22.256;2023-02-28T14:07:43;6.13;;;2.90;;
57225;SDS011;43082;43.568;22.256;2023-02-28T14:10:20;7.07;;;3.40;;
57225;SDS011;43082;43.568;22.256;2023-02-28T14:17:52;8.13;;;1.90;;
57225;SDS011;43082;43.568;22.256;2023-02-28T14:20:18;7.45;;;2.58;;
57225;SDS011;43082;43.568;22.256;2023-02-28T14:22:50;4.97;;;1.35;;
57225;SDS011;43082;43.568;22.256;2023-02-28T14:28:02;5.80;;;2.00;;
57225;SDS011;43082;43.568;22.256;2023-02-28T14:33:05;4.15;;;1.77;;
57225;SDS011;43082;43.568;22.256;2023-02-28T14:38:36;5.80;;;3.00;;
57225;SDS011;43082;43.568;22.256;2023-02-28T14:41:06;5.95;;;2.05;;
57225;SDS011;43082;43.568;22.256;2023-02-28T14:43:47;6.43;;;2.13;;
57225;SDS011;43082;43.568;22.256;2023-02-28T14:46:14;5.87;;;2.33;;
57225;SDS011;43082;43.568;22.256;2023-02-28T14:48:39;5.15;;;2.17;;
57225;SDS011;43082;43.568;22.256;2023-02-28T14:51:05;5.00;;;1.70;;
57225;SDS011;43082;43.568;22.256;2023-02-28T14:53:35;7.57;;;3.05;;
57225;SDS011;43082;43.568;22.256;2023-02-28T14:56:01;7.25;;;3.25;;
57225;SDS011;43082;43.568;22.256;2023-02-28T14:58:28;5.90;;;2.47;;
57225;SDS011;43082;43.568;22.256;2023-02-28T15:00:56;5.28;;;1.95;;
57225;SDS011;43082;43.568;22.256;2023-02-28T15:03:36;9.27;;;4.78;;
57225;SDS011;43082;43.568;22.256;2023-02-28T15:06:04;5.43;;;2.00;;
57225;SDS011;43082;43.568;22.256;2023-02-28T15:08:38;4.70;;;1.50;;
57225;SDS011;43082;43.568;22.256;2023-02-28T15:11:04;5.85;;;2.22;;
57225;SDS011;43082;43.568;22.256;2023-02-28T15:16:55;7.20;;;2.40;;
57225;SDS011;43082;43.568;22.256;2023-02-28T15:19:00;5.00;;;2.25;;
57225;SDS011;43082;43.568;22.256;2023-02-28T15:21:32;4.53;;;1.85;;
57225;SDS011;43082;43.568;22.256;2023-02-28T15:26:52;6.85;;;2.80;;
57225;SDS011;43082;43.568;22.256;2023-02-28T15:29:23;6.30;;;3.20;;
57225;SDS011;43082;43.568;22.256;2023-02-28T15:31:52;7.03;;;3.05;;
57225;SDS011;43082;43.568;22.256;2023-02-28T15:34:43;5.90;;;2.75;;
57225;SDS011;43082;43.568;22.256;2023-02-28T15:39:55;6.18;;;2.50;;
57225;SDS011;43082;43.568;22.256;2023-02-28T15:42:21;6.47;;;3.00;;
57225;SDS011;43082;43.568;22.256;2023-02-28T15:44:48;5.10;;;2.25;;
57225;SDS011;43082;43.568;22.256;2023-02-28T15:49:50;4.55;;;1.73;;
57225;SDS011;43082;43.568;22.256;2023-02-28T15:52:22;5.22;;;2.10;;
57225;SDS011;43082;43.568;22.256;2023-02-28T15:54:51;3.65;;;1.33;;
57225;SDS011;43082;43.568;22.256;2023-02-28T15:57:20;6.20;;;2.10;;
57225;SDS011;43082;43.568;22.256;2023-02-28T15:59:51;6.15;;;2.80;;
57225;SDS011;43082;43.568;22.256;2023-02-28T16:02:20;5.97;;;2.95;;
57225;SDS011;43082;43.568;22.256;2023-02-28T16:04:57;7.97;;;3.92;;
57225;SDS011;43082;43.568;22.256;2023-02-28T16:07:26;6.47;;;2.95;;
57225;SDS011;43082;43.568;22.256;2023-02-28T16:09:52;7.10;;;3.90;;
57225;SDS011;43082;43.568;22.256;2023-02-28T16:12:18;7.57;;;3.30;;
57225;SDS011;43082;43.568;22.256;2023-02-28T16:14:44;7.50;;;3.55;;
57225;SDS011;43082;43.568;22.256;2023-02-28T16:17:24;8.43;;;4.25;;
57225;SDS011;43082;43.568;22.256;2023-02-28T16:19:52;7.22;;;2.88;;
57225;SDS011;43082;43.568;22.256;2023-02-28T16:22:17;6.45;;;2.90;;
57225;SDS011;43082;43.568;22.256;2023-02-28T16:24:43;5.57;;;2.40;;
57225;SDS011;43082;43.568;22.256;2023-02-28T16:30:15;4.30;;;1.70;;
57225;SDS011;43082;43.568;22.256;2023-02-28T16:32:44;5.72;;;2.30;;
57225;SDS011;43082;43.568;22.256;2023-02-28T16:35:10;5.82;;;2.70;;
57225;SDS011;43082;43.568;22.256;2023-02-28T16:37:36;6.00;;;2.78;;
57225;SDS011;43082;43.568;22.256;2023-02-28T16:40:02;6.88;;;3.63;;
57225;SDS011;43082;43.568;22.256;2023-02-28T16:42:28;5.10;;;2.05;;
57225;SDS011;43082;43.568;22.256;2023-02-28T16:44:55;4.80;;;1.90;;
57225;SDS011;43082;43.568;22.256;2023-02-28T16:47:20;6.00;;;2.67;;
57225;SDS011;43082;43.568;22.256;2023-02-28T16:49:46;6.57;;;2.95;;
57225;SDS011;43082;43.568;22.256;2023-02-28T16:52:12;6.63;;;2.42;;
57225;SDS011;43082;43.568;22.256;2023-02-28T16:54:38;5.88;;;2.55;;
57225;SDS011;43082;43.568;22.256;2023-02-28T16:57:05;6.70;;;3.00;;
57225;SDS011;43082;43.568;22.256;2023-02-28T16:59:31;4.60;;;1.80;;
57225;SDS011;43082;43.568;22.256;2023-02-28T17:01:57;5.53;;;2.40;;
57225;SDS011;43082;43.568;22.256;2023-02-28T17:04:26;6.30;;;2.08;;
57225;SDS011;43082;43.568;22.256;2023-02-28T17:06:52;6.72;;;2.92;;
57225;SDS011;43082;43.568;22.256;2023-02-28T17:09:18;6.13;;;2.60;;
57225;SDS011;43082;43.568;22.256;2023-02-28T17:11:47;5.45;;;2.08;;
57225;SDS011;43082;43.568;22.256;2023-02-28T17:14:13;5.10;;;1.98;;